sensor_id;sensor_type;location;lat;lon;timestamp;P1;durP1;ratioP1;P2;durP2;ratioP2
57893;SDS011;43710;47.460;19.034;2024-02-21T05:00:02;9.52;;;5.00;;
57893;SDS011;43710;47.460;19.034;2024-02-21T05:03:05;9.02;;;4.82;;
57893;SDS011;43710;47.460;19.034;2024-02-21T05:06:08;8.05;;;4.80;;
57893;SDS011;43710;47.460;19.034;2024-02-21T05:09:10;8.20;;;4.93;;
57893;SDS011;43710;47.460;19.034;2024-02-21T05:12:13;10.45;;;4.93;;
57893;SDS011;43710;47.460;19.034;2024-02-21T05:15:16;7.30;;;4.37;;
57893;SDS011;43710;47.460;19.034;2024-02-21T05:18:18;8.25;;;4.43;;
57893;SDS011;43710;47.460;19.034;2024-02-21T05:21:22;8.07;;;3.95;;
57893;SDS011;43710;47.460;19.034;2024-02-21T05:24:25;7.10;;;4.60;;
57893;SDS011;43710;47.460;19.034;2024-02-21T05:27:28;7.40;;;4.03;;
57893;SDS011;43710;47.460;19.034;2024-02-21T05:30:30;7.22;;;4.07;;
57893;SDS011;43710;47.460;19.034;2024-02-21T05:33:34;5.93;;;4.40;;
57893;SDS011;43710;47.460;19.034;2024-02-21T05:36:36;9.65;;;4.45;;
57893;SDS011;43710;47.460;19.034;2024-02-21T05:39:38;7.12;;;4.10;;
57893;SDS011;43710;47.460;19.034;2024-02-21T05:42:41;9.18;;;4.65;;
57893;SDS011;43710;47.460;19.034;2024-02-21T05:45:43;9.60;;;5.20;;
57893;SDS011;43710;47.460;19.034;2024-02-21T05:48:45;8.73;;;4.15;;
57893;SDS011;43710;47.460;19.034;2024-02-21T05:51:48;7.00;;;4.25;;
57893;SDS011;43710;47.460;19.034;2024-02-21T05:54:51;9.27;;;4.75;;
57893;SDS011;43710;47.460;19.034;2024-02-21T05:57:53;9.95;;;4.20;;
57893;SDS011;43710;47.460;19.034;2024-02-21T06:00:57;8.45;;;4.68;;
57893;SDS011;43710;47.460;19.034;2024-02-21T06:03:59;9.23;;;4.25;;
57893;SDS011;43710;47.460;19.034;2024-02-21T06:07:01;10.63;;;4.22;;
57893;SDS011;43710;47.460;19.034;2024-02-21T06:10:04;8.18;;;3.80;;
57893;SDS011;43710;47.460;19.034;2024-02-21T06:13:07;8.20;;;4.40;;
57893;SDS011;43710;47.460;19.034;2024-02-21T06:16:11;8.35;;;3.85;;
57893;SDS011;43710;47.460;19.034;2024-02-21T06:19:14;6.87;;;4.03;;
57893;SDS011;43710;47.460;19.034;2024-02-21T06:22:16;11.35;;;4.22;;
57893;SDS011;43710;47.460;19.034;2024-02-21T06:25:21;9.00;;;4.55;;
57893;SDS011;43710;47.460;19.034;2024-02-21T06:28:24;8.63;;;4.50;;
57893;SDS011;43710;47.460;19.034;2024-02-21T06:31:27;7.50;;;4.57;;
57893;SDS011;43710;47.460;19.034;2024-02-21T06:34:30;8.27;;;5.28;;
57893;SDS011;43710;47.460;19.034;2024-02-21T06:37:36;8.82;;;4.65;;
57893;SDS011;43710;47.460;19.034;2024-02-21T06:40:40;11.38;;;4.43;;
57893;SDS011;43710;47.460;19.034;2024-02-21T06:43:42;18.37;;;5.30;;
57893;SDS011;43710;47.460;19.034;2024-02-21T06:46:45;10.85;;;4.22;;
57893;SDS011;43710;47.460;19.034;2024-02-21T06:49:50;8.65;;;4.45;;
57893;SDS011;43710;47.460;19.034;2024-02-21T06:52:53;8.63;;;4.70;;
57893;SDS011;43710;47.460;19.034;2024-02-21T06:55:56;10.55;;;4.82;;
57893;SDS011;43710;47.460;19.034;2024-02-21T06:58:59;12.77;;;4.95;;
57893;SDS011;43710;47.460;19.034;2024-02-21T07:02:02;12.68;;;5.22;;
57893;SDS011;43710;47.460;19.034;2024-02-21T07:05:05;9.32;;;4.93;;
57893;SDS011;43710;47.460;19.034;2024-02-21T07:08:07;10.07;;;4.50;;
57893;SDS011;43710;47.460;19.034;2024-02-21T07:11:10;14.18;;;4.60;;
57893;SDS011;43710;47.460;19.034;2024-02-21T07:14:16;10.50;;;4.03;;
57893;SDS011;43710;47.460;19.034;2024-02-21T07:17:20;9.30;;;4.68;;
57893;SDS011;43710;47.460;19.034;2024-02-21T07:20:24;7.70;;;3.70;;
57893;SDS011;43710;47.460;19.034;2024-02-21T07:23:27;10.77;;;4.20;;
57893;SDS011;43710;47.460;19.034;2024-02-21T07:26:30;9.50;;;3.75;;
57893;SDS011;43710;47.460;19.034;2024-02-21T07:29:33;8.77;;;3.72;;
57893;SDS011;43710;47.460;19.034;2024-02-21T07:32:35;13.02;;;3.78;;
57893;SDS011;43710;47.460;19.034;2024-02-21T07:35:38;6.82;;;3.10;;
57893;SDS011;43710;47.460;19.034;2024-02-21T07:38:42;7.50;;;3.10;;
57893;SDS011;43710;47.460;19.034;2024-02-21T07:41:45;6.15;;;3.00;;
57893;SDS011;43710;47.460;19.034;2024-02-21T07:44:49;11.90;;;4.07;;
57893;SDS011;43710;47.460;19.034;2024-02-21T07:47:52;7.87;;;3.08;;
57893;SDS011;43710;47.460;19.034;2024-02-21T07:50:54;14.07;;;3.62;;
57893;SDS011;43710;47.460;19.034;2024-02-21T07:53:57;7.90;;;3.50;;
57893;SDS011;43710;47.460;19.034;2024-02-21T07:56:59;8.65;;;3.80;;
57893;SDS011;43710;47.460;19.034;2024-02-21T08:00:02;11.05;;;3.60;;
57893;SDS011;43710;47.460;19.034;2024-02-21T08:03:13;8.95;;;3.37;;
57893;SDS011;43710;47.460;19.034;2024-02-21T08:06:17;7.57;;;3.28;;
57893;SDS011;43710;47.460;19.034;2024-02-21T08:09:20;7.87;;;3.37;;
57893;SDS011;43710;47.460;19.034;2024-02-21T08:12:22;13.55;;;3.97;;
57893;SDS011;43710;47.460;19.034;2024-02-21T08:15:24;10.60;;;4.10;;
57893;SDS011;43710;47.460;19.034;2024-02-21T08:18:30;9.55;;;3.40;;
57893;SDS011;43710;47.460;19.034;2024-02-21T08:21:33;9.48;;;3.47;;
57893;SDS011;43710;47.460;19.034;2024-02-21T08:24:36;9.23;;;3.67;;
57893;SDS011;43710;47.460;19.034;2024-02-21T08:27:38;12.63;;;3.90;;
57893;SDS011;43710;47.460;19.034;2024-02-21T08:30:40;12.80;;;4.28;;
57893;SDS011;43710;47.460;19.034;2024-02-21T08:33:46;11.93;;;3.78;;
57893;SDS011;43710;47.460;19.034;2024-02-21T08:36:49;9.32;;;3.20;;
57893;SDS011;43710;47.460;19.034;2024-02-21T08:39:52;9.25;;;3.60;;
57893;SDS011;43710;47.460;19.034;2024-02-21T08:42:54;10.30;;;3.25;;
57893;SDS011;43710;47.460;19.034;2024-02-21T08:45:57;11.15;;;3.65;;
57893;SDS011;43710;47.460;19.034;2024-02-21T08:48:59;9.52;;;3.50;;
57893;SDS011;43710;47.460;19.034;2024-02-21T08:52:01;9.10;;;3.30;;
57893;SDS011;43710;47.460;19.034;2024-02-21T08:55:05;8.32;;;3.17;;
57893;SDS011;43710;47.460;19.034;2024-02-21T08:58:08;9.77;;;2.95;;
57893;SDS011;43710;47.460;19.034;2024-02-21T09:01:11;9.05;;;3.20;;
57893;SDS011;43710;47.460;19.034;2024-02-21T09:04:13;8.02;;;3.55;;
57893;SDS011;43710;47.460;19.034;2024-02-21T09:07:16;9.25;;;3.33;;
57893;SDS011;43710;47.460;19.034;2024-02-21T09:10:18;9.77;;;3.45;;
57893;SDS011;43710;47.460;19.034;2024-02-21T09:13:20;7.53;;;3.15;;
57893;SDS011;43710;47.460;19.034;2024-02-21T09:16:23;10.15;;;3.17;;
57893;SDS011;43710;47.460;19.034;2024-02-21T09:19:26;9.77;;;3.40;;
57893;SDS011;43710;47.460;19.034;2024-02-21T09:22:28;8.20;;;3.47;;
57893;SDS011;43710;47.460;19.034;2024-02-21T09:25:31;7.22;;;3.35;;
57893;SDS011;43710;47.460;19.034;2024-02-21T09:28:34;10.10;;;3.90;;
57893;SDS011;43710;47.460;19.034;2024-02-21T09:31:37;9.23;;;3.75;;
57893;SDS011;43710;47.460;19.034;2024-02-21T09:34:40;9.63;;;3.65;;
57893;SDS011;43710;47.460;19.034;2024-02-21T09:37:43;10.38;;;3.50;;
57893;SDS011;43710;47.460;19.034;2024-02-21T09:40:45;10.98;;;3.50;;
57893;SDS011;43710;47.460;19.034;2024-02-21T09:43:49;11.35;;;3.30;;
57893;SDS011;43710;47.460;19.034;2024-02-21T09:46:52;9.70;;;3.22;;
57893;SDS011;43710;47.460;19.034;2024-02-21T09:50:09;10.95;;;3.35;;
57893;SDS011;43710;47.460;19.034;2024-02-21T09:53:12;9.90;;;3.22;;
57893;SDS011;43710;47.460;19.034;2024-02-21T09:56:18;13.35;;;3.97;;
57893;SDS011;43710;47.460;19.034;2024-02-21T09:59:20;9.88;;;3.67;;
57893;SDS011;43710;47.460;19.034;2024-02-21T10:02:23;10.93;;;3.45;;
57893;SDS011;43710;47.460;19.034;2024-02-21T10:05:26;9.43;;;3.20;;
57893;SDS011;43710;47.460;19.034;2024-02-21T10:08:29;10.30;;;3.50;;
57893;SDS011;43710;47.460;19.034;2024-02-21T10:11:32;8.20;;;3.67;;
57893;SDS011;43710;47.460;19.034;2024-02-21T10:14:38;10.70;;;3.60;;
57893;SDS011;43710;47.460;19.034;2024-02-21T10:17:41;7.93;;;3.53;;
57893;SDS011;43710;47.460;19.034;2024-02-21T10:20:43;10.63;;;3.72;;
57893;SDS011;43710;47.460;19.034;2024-02-21T10:23:47;9.02;;;4.37;;
57893;SDS011;43710;47.460;19.034;2024-02-21T10:26:58;10.95;;;3.95;;
57893;SDS011;43710;47.460;19.034;2024-02-21T10:30:06;24.05;;;4.32;;
57893;SDS011;43710;47.460;19.034;2024-02-21T10:33:15;10.63;;;3.97;;
57893;SDS011;43710;47.460;19.034;2024-02-21T10:36:18;8.55;;;3.50;;
57893;SDS011;43710;47.460;19.034;2024-02-21T10:39:21;11.68;;;4.37;;
57893;SDS011;43710;47.460;19.034;2024-02-21T10:42:24;13.80;;;4.15;;
57893;SDS011;43710;47.460;19.034;2024-02-21T10:45:32;7.75;;;3.28;;
57893;SDS011;43710;47.460;19.034;2024-02-21T10:48:41;7.45;;;3.45;;
57893;SDS011;43710;47.460;19.034;2024-02-21T10:51:45;12.48;;;3.80;;
57893;SDS011;43710;47.460;19.034;2024-02-21T10:54:53;10.00;;;3.40;;
57893;SDS011;43710;47.460;19.034;2024-02-21T10:57:59;9.65;;;4.15;;
57893;SDS011;43710;47.460;19.034;2024-02-21T11:01:02;9.13;;;4.03;;
57893;SDS011;43710;47.460;19.034;2024-02-21T11:04:07;11.68;;;3.85;;
57893;SDS011;43710;47.460;19.034;2024-02-21T11:07:12;11.43;;;3.65;;
57893;SDS011;43710;47.460;19.034;2024-02-21T11:10:25;10.80;;;3.67;;
57893;SDS011;43710;47.460;19.034;2024-02-21T11:13:34;11.63;;;4.05;;
57893;SDS011;43710;47.460;19.034;2024-02-21T11:16:38;11.85;;;4.87;;
57893;SDS011;43710;47.460;19.034;2024-02-21T11:19:42;12.43;;;4.37;;
57893;SDS011;43710;47.460;19.034;2024-02-21T11:22:44;12.20;;;3.80;;
57893;SDS011;43710;47.460;19.034;2024-02-21T11:25:47;9.57;;;3.62;;
57893;SDS011;43710;47.460;19.034;2024-02-21T11:28:56;9.93;;;3.95;;
57893;SDS011;43710;47.460;19.034;2024-02-21T11:32:03;6.47;;;3.03;;
57893;SDS011;43710;47.460;19.034;2024-02-21T11:35:10;10.27;;;3.50;;
57893;SDS011;43710;47.460;19.034;2024-02-21T11:38:22;10.05;;;3.83;;
57893;SDS011;43710;47.460;19.034;2024-02-21T11:41:24;8.32;;;3.70;;
57893;SDS011;43710;47.460;19.034;2024-02-21T11:44:27;9.50;;;3.45;;
57893;SDS011;43710;47.460;19.034;2024-02-21T11:47:29;9.63;;;3.28;;
57893;SDS011;43710;47.460;19.034;2024-02-21T11:50:33;7.47;;;4.07;;
57893;SDS011;43710;47.460;19.034;2024-02-21T11:56:51;10.57;;;3.62;;
57893;SDS011;43710;47.460;19.034;2024-02-21T11:59:54;10.55;;;4.30;;
57893;SDS011;43710;47.460;19.034;2024-02-21T12:03:01;12.07;;;4.30;;
57893;SDS011;43710;47.460;19.034;2024-02-21T12:06:06;9.02;;;3.90;;
57893;SDS011;43710;47.460;19.034;2024-02-21T12:09:08;7.68;;;4.00;;
57893;SDS011;43710;47.460;19.034;2024-02-21T12:12:11;12.73;;;3.78;;
57893;SDS011;43710;47.460;19.034;2024-02-21T12:15:14;8.77;;;3.37;;
57893;SDS011;43710;47.460;19.034;2024-02-21T12:18:18;12.70;;;3.33;;
57893;SDS011;43710;47.460;19.034;2024-02-21T12:21:23;8.80;;;3.00;;
57893;SDS011;43710;47.460;19.034;2024-02-21T12:24:27;10.05;;;3.53;;
57893;SDS011;43710;47.460;19.034;2024-02-21T12:27:30;8.20;;;3.20;;
57893;SDS011;43710;47.460;19.034;2024-02-21T12:30:33;11.52;;;3.92;;
57893;SDS011;43710;47.460;19.034;2024-02-21T12:33:37;10.38;;;4.10;;
57893;SDS011;43710;47.460;19.034;2024-02-21T12:36:43;8.00;;;2.85;;
57893;SDS011;43710;47.460;19.034;2024-02-21T12:39:48;9.68;;;3.42;;
57893;SDS011;43710;47.460;19.034;2024-02-21T12:42:51;8.75;;;2.90;;
57893;SDS011;43710;47.460;19.034;2024-02-21T12:45:54;10.93;;;3.00;;
57893;SDS011;43710;47.460;19.034;2024-02-21T12:48:57;6.40;;;2.70;;
57893;SDS011;43710;47.460;19.034;2024-02-21T12:51:59;9.43;;;2.50;;
57893;SDS011;43710;47.460;19.034;2024-02-21T12:55:01;6.18;;;2.70;;
57893;SDS011;43710;47.460;19.034;2024-02-21T12:58:04;6.07;;;2.72;;
57893;SDS011;43710;47.460;19.034;2024-02-21T13:01:09;9.90;;;3.20;;
57893;SDS011;43710;47.460;19.034;2024-02-21T13:04:11;10.57;;;3.10;;
57893;SDS011;43710;47.460;19.034;2024-02-21T13:07:14;10.38;;;3.60;;
57893;SDS011;43710;47.460;19.034;2024-02-21T13:10:16;9.50;;;3.60;;
57893;SDS011;43710;47.460;19.034;2024-02-21T13:13:20;8.38;;;3.60;;
57893;SDS011;43710;47.460;19.034;2024-02-21T13:16:23;9.30;;;3.78;;
57893;SDS011;43710;47.460;19.034;2024-02-21T13:19:25;5.32;;;2.50;;
57893;SDS011;43710;47.460;19.034;2024-02-21T13:22:28;11.35;;;3.40;;
57893;SDS011;43710;47.460;19.034;2024-02-21T13:25:30;9.05;;;3.30;;
57893;SDS011;43710;47.460;19.034;2024-02-21T13:28:32;11.85;;;3.90;;
57893;SDS011;43710;47.460;19.034;2024-02-21T13:31:35;11.15;;;3.78;;
57893;SDS011;43710;47.460;19.034;2024-02-21T13:34:37;7.70;;;3.20;;
57893;SDS011;43710;47.460;19.034;2024-02-21T13:37:40;7.22;;;3.42;;
57893;SDS011;43710;47.460;19.034;2024-02-21T13:40:43;8.05;;;3.33;;
57893;SDS011;43710;47.460;19.034;2024-02-21T13:43:45;9.02;;;3.08;;
57893;SDS011;43710;47.460;19.034;2024-02-21T13:46:48;9.07;;;3.40;;
57893;SDS011;43710;47.460;19.034;2024-02-21T13:49:51;9.07;;;3.55;;
57893;SDS011;43710;47.460;19.034;2024-02-21T13:52:54;9.05;;;3.20;;
57893;SDS011;43710;47.460;19.034;2024-02-21T13:55:56;7.57;;;3.05;;
57893;SDS011;43710;47.460;19.034;2024-02-21T13:58:59;8.77;;;2.97;;
57893;SDS011;43710;47.460;19.034;2024-02-21T14:02:02;12.07;;;3.28;;
57893;SDS011;43710;47.460;19.034;2024-02-21T14:05:05;8.55;;;3.10;;
57893;SDS011;43710;47.460;19.034;2024-02-21T14:08:08;9.30;;;3.33;;
57893;SDS011;43710;47.460;19.034;2024-02-21T14:11:10;13.20;;;3.40;;
57893;SDS011;43710;47.460;19.034;2024-02-21T14:14:13;9.68;;;3.25;;
57893;SDS011;43710;47.460;19.034;2024-02-21T14:17:17;23.08;;;3.90;;
57893;SDS011;43710;47.460;19.034;2024-02-21T14:20:20;10.43;;;3.37;;
57893;SDS011;43710;47.460;19.034;2024-02-21T14:23:23;9.77;;;3.15;;
57893;SDS011;43710;47.460;19.034;2024-02-21T14:26:25;9.23;;;3.70;;
57893;SDS011;43710;47.460;19.034;2024-02-21T14:29:27;15.68;;;3.92;;
57893;SDS011;43710;47.460;19.034;2024-02-21T14:32:30;12.18;;;3.55;;
57893;SDS011;43710;47.460;19.034;2024-02-21T14:35:33;8.88;;;3.10;;
57893;SDS011;43710;47.460;19.034;2024-02-21T14:38:36;11.35;;;3.05;;
57893;SDS011;43710;47.460;19.034;2024-02-21T14:41:38;7.50;;;2.70;;
57893;SDS011;43710;47.460;19.034;2024-02-21T14:44:41;14.30;;;3.45;;
57893;SDS011;43710;47.460;19.034;2024-02-21T14:47:43;9.02;;;3.12;;
57893;SDS011;43710;47.460;19.034;2024-02-21T14:50:46;7.20;;;2.62;;
57893;SDS011;43710;47.460;19.034;2024-02-21T14:53:48;7.47;;;2.62;;
57893;SDS011;43710;47.460;19.034;2024-02-21T14:56:50;8.82;;;3.65;;
57893;SDS011;43710;47.460;19.034;2024-02-21T14:59:53;8.90;;;3.20;;
57893;SDS011;43710;47.460;19.034;2024-02-21T15:02:58;7.78;;;2.60;;
57893;SDS011;43710;47.460;19.034;2024-02-21T15:06:01;14.80;;;2.78;;
57893;SDS011;43710;47.460;19.034;2024-02-21T15:09:04;17.05;;;2.80;;
57893;SDS011;43710;47.460;19.034;2024-02-21T15:12:08;7.37;;;2.60;;
57893;SDS011;43710;47.460;19.034;2024-02-21T15:15:10;10.30;;;3.08;;
57893;SDS011;43710;47.460;19.034;2024-02-21T15:18:13;8.02;;;2.53;;
57893;SDS011;43710;47.460;19.034;2024-02-21T15:21:19;12.60;;;2.90;;
57893;SDS011;43710;47.460;19.034;2024-02-21T15:24:21;8.60;;;3.22;;
57893;SDS011;43710;47.460;19.034;2024-02-21T15:27:23;7.43;;;2.70;;
57893;SDS011;43710;47.460;19.034;2024-02-21T15:30:28;8.52;;;3.40;;
57893;SDS011;43710;47.460;19.034;2024-02-21T15:33:33;6.30;;;2.75;;
57893;SDS011;43710;47.460;19.034;2024-02-21T15:36:41;8.30;;;2.83;;
57893;SDS011;43710;47.460;19.034;2024-02-21T15:39:44;10.35;;;3.22;;
57893;SDS011;43710;47.460;19.034;2024-02-21T15:42:46;11.65;;;2.70;;
57893;SDS011;43710;47.460;19.034;2024-02-21T15:45:48;6.43;;;2.60;;
57893;SDS011;43710;47.460;19.034;2024-02-21T15:48:51;15.35;;;3.87;;
57893;SDS011;43710;47.460;19.034;2024-02-21T15:51:56;9.95;;;2.83;;
57893;SDS011;43710;47.460;19.034;2024-02-21T15:54:58;8.20;;;2.75;;
57893;SDS011;43710;47.460;19.034;2024-02-21T15:58:01;8.23;;;2.60;;
57893;SDS011;43710;47.460;19.034;2024-02-21T16:01:06;9.18;;;3.03;;
57893;SDS011;43710;47.460;19.034;2024-02-21T16:04:08;7.53;;;3.20;;
57893;SDS011;43710;47.460;19.034;2024-02-21T16:07:11;12.60;;;3.70;;
57893;SDS011;43710;47.460;19.034;2024-02-21T16:10:14;9.30;;;3.28;;
57893;SDS011;43710;47.460;19.034;2024-02-21T16:13:16;8.68;;;3.62;;
57893;SDS011;43710;47.460;19.034;2024-02-21T16:16:18;9.23;;;3.12;;
57893;SDS011;43710;47.460;19.034;2024-02-21T16:19:20;12.65;;;3.37;;
57893;SDS011;43710;47.460;19.034;2024-02-21T16:22:23;9.65;;;3.70;;
57893;SDS011;43710;47.460;19.034;2024-02-21T16:25:29;9.38;;;5.00;;
57893;SDS011;43710;47.460;19.034;2024-02-21T16:28:31;12.82;;;5.72;;
57893;SDS011;43710;47.460;19.034;2024-02-21T16:31:34;13.85;;;5.53;;
57893;SDS011;43710;47.460;19.034;2024-02-21T16:34:40;12.13;;;6.05;;
57893;SDS011;43710;47.460;19.034;2024-02-21T16:37:42;11.70;;;5.53;;
57893;SDS011;43710;47.460;19.034;2024-02-21T16:40:45;9.32;;;4.10;;
57893;SDS011;43710;47.460;19.034;2024-02-21T16:43:47;11.00;;;5.22;;
57893;SDS011;43710;47.460;19.034;2024-02-21T16:46:50;16.30;;;5.10;;
57893;SDS011;43710;47.460;19.034;2024-02-21T16:49:55;10.32;;;4.97;;
57893;SDS011;43710;47.460;19.034;2024-02-21T16:52:57;10.68;;;4.87;;
